aviador You're here:

LFMI Decoded Metar

ISTRES in FRANCE
Report Time2017-11-25 07:00:00
UTC Time2017-11-25 07:25:11
Flight Rules ifr IFR
Wind080° at 03 kt
W.Decomp.*RWY 15: 1.0 kt HW 2.8 kt LCW
W.Rank080° ranks 20
Current wind is below 080° avg. (5.5)
Visibility9999 m
Phenomena:N/A
Clouds:Overcast 008 Hf
Expected CloudBase > 1,200 ft AGL from Temp-Dew spread
Ceiling800 ft
Temp14°C (ISA -1)
Dew Point11°C (82% RH)
AAT13.2°C
QNH1013 hPa
Density Alt154 ft
Elevation79 ft
Report Wrong Elevation
Raw Report
LFMI 250700Z AUTO 08003KT 9999 OVC008 14/11 Q1013 NOSIG=

Extra information for LFMI:More info

Metar Taf Metar & Taf Last 4 Metars F.Rules Stats Wind Profile Meteogram Temp Stats Airport Information Weather charts Add Link Nearby VenuesMetar ALERT Operation Metar Decoded Social comments